createdAt,value
2019-01-29T00:01:04.512Z,89.20
2019-01-29T00:03:34.039Z,87.50
2019-01-29T00:06:04.367Z,86.40
2019-01-29T00:08:34.193Z,85.30
2019-01-29T00:11:03.771Z,85.20
2019-01-29T00:13:33.600Z,85.80
2019-01-29T00:16:03.180Z,85.10
2019-01-29T00:18:32.728Z,83.30
2019-01-29T00:21:02.447Z,86.30
2019-01-29T00:23:31.992Z,87.60
2019-01-29T00:26:01.860Z,89.30
2019-01-29T00:28:31.440Z,89.50
2019-01-29T00:31:01.253Z,90.00
2019-01-29T00:33:31.122Z,89.60
2019-01-29T00:36:00.677Z,90.30
2019-01-29T00:38:30.259Z,91.10
2019-01-29T00:41:00.107Z,91.00
2019-01-29T00:43:30.242Z,90.40
2019-01-29T00:46:00.033Z,90.10
2019-01-29T00:48:29.722Z,91.20
2019-01-29T00:50:59.531Z,91.60
2019-01-29T00:53:29.125Z,91.10
2019-01-29T00:55:58.782Z,91.40
2019-01-29T00:58:28.292Z,90.90
2019-01-29T01:00:58.056Z,90.60
2019-01-29T01:03:27.816Z,88.90
2019-01-29T01:05:57.431Z,88.90
2019-01-29T01:08:27.005Z,89.50
2019-01-29T01:10:56.973Z,90.10
2019-01-29T01:13:26.570Z,90.30
2019-01-29T01:15:56.139Z,89.50
2019-01-29T01:18:25.754Z,89.30
2019-01-29T01:20:55.303Z,88.40
2019-01-29T01:23:25.155Z,86.50
2019-01-29T01:25:54.964Z,86.50
2019-01-29T01:28:24.527Z,85.40
2019-01-29T01:30:54.081Z,85.20
2019-01-29T01:33:23.659Z,86.00
2019-01-29T01:35:53.224Z,86.60
2019-01-29T01:38:23.331Z,86.10
2019-01-29T01:40:53.482Z,86.80
2019-01-29T01:43:23.365Z,87.10
2019-01-29T01:45:53.214Z,87.90
2019-01-29T01:48:22.822Z,87.20
2019-01-29T01:50:52.566Z,86.10
2019-01-29T01:53:22.194Z,85.70
2019-01-29T01:55:52.298Z,84.20
2019-01-29T01:58:21.949Z,83.20
2019-01-29T02:00:52.111Z,84.20
2019-01-29T02:03:22.051Z,85.10
2019-01-29T02:05:51.609Z,86.10
2019-01-29T02:08:21.210Z,86.90
2019-01-29T02:10:50.783Z,87.20
2019-01-29T02:13:20.929Z,86.20
2019-01-29T02:15:50.991Z,85.80
2019-01-29T02:18:20.606Z,85.60
2019-01-29T02:20:50.193Z,84.60
2019-01-29T02:23:19.732Z,85.30
2019-01-29T02:25:49.835Z,86.00
2019-01-29T02:28:19.414Z,89.50
2019-01-29T02:30:48.991Z,90.00
2019-01-29T02:33:18.502Z,90.10
2019-01-29T02:35:48.396Z,89.20
2019-01-29T02:38:17.963Z,89.10
2019-01-29T02:40:47.527Z,89.70
2019-01-29T02:43:17.381Z,90.10
2019-01-29T02:45:47.006Z,90.20
2019-01-29T02:48:16.512Z,91.10
2019-01-29T02:50:46.407Z,91.70
2019-01-29T02:53:18.512Z,92.10
2019-01-29T02:55:47.791Z,91.80
2019-01-29T02:58:17.391Z,92.30
2019-01-29T03:00:47.235Z,92.90
2019-01-29T03:03:17.055Z,92.90
2019-01-29T03:05:46.855Z,92.90
2019-01-29T03:08:18.025Z,92.80
2019-01-29T03:10:47.527Z,92.10
2019-01-29T03:13:17.120Z,91.60
2019-01-29T03:15:46.688Z,91.10
2019-01-29T03:18:16.794Z,90.80
2019-01-29T03:20:46.367Z,90.60
2019-01-29T03:23:15.979Z,90.30
2019-01-29T03:25:45.858Z,90.60
2019-01-29T03:28:15.409Z,90.00
2019-01-29T03:30:45.007Z,90.20
2019-01-29T03:33:14.844Z,90.00
2019-01-29T03:35:44.646Z,90.30
2019-01-29T03:38:14.536Z,90.10
2019-01-29T03:40:44.158Z,89.80
2019-01-29T03:43:14.027Z,90.50
2019-01-29T03:45:44.238Z,90.60
2019-01-29T03:48:14.093Z,89.50
2019-01-29T03:50:43.673Z,90.30
2019-01-29T03:53:13.502Z,90.40
2019-01-29T03:55:43.079Z,90.40
2019-01-29T03:58:12.664Z,91.30
2019-01-29T04:00:43.001Z,90.90
2019-01-29T04:03:12.867Z,90.40
2019-01-29T04:05:42.447Z,90.30
2019-01-29T04:08:12.297Z,90.10
2019-01-29T04:10:41.921Z,88.80
2019-01-29T04:13:11.447Z,87.70
2019-01-29T04:15:41.128Z,86.60
2019-01-29T04:18:11.225Z,86.80
2019-01-29T04:20:40.765Z,86.40
2019-01-29T04:23:10.673Z,85.60
2019-01-29T04:25:40.247Z,85.00
2019-01-29T04:28:09.815Z,84.50
2019-01-29T04:30:39.651Z,84.90
2019-01-29T04:33:09.712Z,84.60
2019-01-29T04:35:39.532Z,84.10
2019-01-29T04:38:09.386Z,85.50
2019-01-29T04:40:38.928Z,84.90
2019-01-29T04:43:08.488Z,86.00
2019-01-29T04:45:38.089Z,87.60
2019-01-29T04:48:07.673Z,87.90
2019-01-29T04:50:37.275Z,86.60
2019-01-29T04:53:06.855Z,86.40
2019-01-29T04:55:36.436Z,86.10
2019-01-29T04:58:06.184Z,85.70
2019-01-29T05:00:36.034Z,85.30
2019-01-29T05:03:05.612Z,83.80
2019-01-29T05:05:35.490Z,83.00
2019-01-29T05:08:05.008Z,81.40
2019-01-29T05:10:34.874Z,81.00
2019-01-29T05:13:04.749Z,81.40
2019-01-29T05:15:34.319Z,81.30
2019-01-29T05:18:03.908Z,82.90
2019-01-29T05:20:33.786Z,82.90
2019-01-29T05:23:03.583Z,83.00
2019-01-29T05:25:33.192Z,83.60
2019-01-29T05:28:03.019Z,82.90
2019-01-29T05:30:32.615Z,83.00
2019-01-29T05:33:02.179Z,83.50
2019-01-29T05:35:31.795Z,82.90
2019-01-29T05:38:01.366Z,83.20
2019-01-29T05:40:31.223Z,82.30
2019-01-29T05:43:01.280Z,81.80
2019-01-29T05:45:31.203Z,83.30
2019-01-29T05:48:00.764Z,86.10
2019-01-29T05:50:30.605Z,86.90
2019-01-29T05:53:00.458Z,87.30
2019-01-29T05:55:30.030Z,88.90
2019-01-29T05:57:59.849Z,88.80
2019-01-29T06:00:35.261Z,88.70
2019-01-29T06:03:05.192Z,89.70
2019-01-29T06:05:34.740Z,89.70
2019-01-29T06:08:05.237Z,90.30
2019-01-29T06:10:36.151Z,90.10
2019-01-29T06:13:06.107Z,90.30
2019-01-29T06:15:35.960Z,90.10
2019-01-29T06:18:06.303Z,90.60
2019-01-29T06:20:35.974Z,90.50
2019-01-29T06:23:05.586Z,89.60
2019-01-29T06:25:35.447Z,87.80
2019-01-29T06:28:05.233Z,87.50
2019-01-29T06:30:35.126Z,87.30
2019-01-29T06:33:04.911Z,86.60
2019-01-29T06:35:35.039Z,87.00
2019-01-29T06:38:04.855Z,86.90
2019-01-29T06:40:34.682Z,86.40
2019-01-29T06:43:04.311Z,85.90
2019-01-29T06:45:33.920Z,86.70
2019-01-29T06:48:03.457Z,86.60
2019-01-29T06:50:33.323Z,86.10
2019-01-29T06:53:03.435Z,86.30
2019-01-29T06:55:33.288Z,86.70
2019-01-29T06:58:02.913Z,86.20
2019-01-29T07:00:32.929Z,86.80
2019-01-29T07:03:03.588Z,86.20
2019-01-29T07:05:33.448Z,88.10
2019-01-29T07:08:03.097Z,88.60
2019-01-29T07:10:32.656Z,88.40
2019-01-29T07:13:02.532Z,90.10
2019-01-29T07:16:09.034Z,90.40
2019-01-29T07:19:04.059Z,90.40
2019-01-29T07:21:33.683Z,89.40
2019-01-29T07:24:03.273Z,90.40
2019-01-29T07:26:33.400Z,90.60
2019-01-29T07:29:03.240Z,90.80
2019-01-29T07:31:33.087Z,90.60
2019-01-29T07:34:02.983Z,91.00
2019-01-29T07:36:32.582Z,91.30
2019-01-29T07:39:04.799Z,92.10
2019-01-29T07:41:34.052Z,92.30
2019-01-29T07:44:03.906Z,92.10
2019-01-29T07:46:33.566Z,91.60
2019-01-29T07:49:03.164Z,91.00
2019-01-29T07:51:32.785Z,90.80
2019-01-29T07:54:02.359Z,90.70
2019-01-29T07:56:32.096Z,90.60
2019-01-29T07:59:01.653Z,89.30
2019-01-29T08:01:31.263Z,88.50
2019-01-29T08:04:00.884Z,89.20
2019-01-29T08:06:30.819Z,87.10
2019-01-29T08:09:00.450Z,87.20
2019-01-29T08:11:30.035Z,86.40
2019-01-29T08:13:59.687Z,83.50
2019-01-29T08:16:29.537Z,83.70
2019-01-29T08:18:59.117Z,82.10
2019-01-29T08:21:28.735Z,82.90
2019-01-29T08:23:58.273Z,82.50
2019-01-29T08:26:27.822Z,81.50
2019-01-29T08:28:57.702Z,81.90
2019-01-29T08:31:27.508Z,81.30
2019-01-29T08:33:57.468Z,81.90
2019-01-29T08:36:27.077Z,81.50
2019-01-29T08:38:56.703Z,82.40
2019-01-29T08:41:26.671Z,83.10
2019-01-29T08:43:56.818Z,84.10
2019-01-29T08:46:26.457Z,85.50
2019-01-29T08:48:56.010Z,83.30
2019-01-29T08:51:25.852Z,83.50
2019-01-29T08:53:55.454Z,82.70
2019-01-29T08:56:25.417Z,81.80
2019-01-29T08:58:54.949Z,82.40
2019-01-29T09:01:24.575Z,83.20
2019-01-29T09:03:54.387Z,81.90
2019-01-29T09:06:24.481Z,80.80
2019-01-29T09:08:54.037Z,80.90
2019-01-29T09:11:23.613Z,81.30
2019-01-29T09:13:53.219Z,82.70
2019-01-29T09:16:22.841Z,82.00
2019-01-29T09:18:52.408Z,82.00
2019-01-29T09:21:22.317Z,81.20
2019-01-29T09:23:51.900Z,77.90
2019-01-29T09:26:21.498Z,77.50
2019-01-29T09:28:51.075Z,75.70
2019-01-29T09:31:20.669Z,75.10
2019-01-29T09:33:50.243Z,74.10
2019-01-29T09:36:20.094Z,74.80
2019-01-29T09:38:49.730Z,74.20
2019-01-29T09:41:19.311Z,77.70
2019-01-29T09:43:48.911Z,78.30
2019-01-29T09:46:18.769Z,73.20
2019-01-29T09:48:48.336Z,72.90
2019-01-29T09:51:17.971Z,73.40
2019-01-29T09:53:47.526Z,73.50
2019-01-29T09:56:17.403Z,74.20
2019-01-29T09:58:47.283Z,73.20
2019-01-29T10:01:17.450Z,70.20
2019-01-29T10:03:47.000Z,71.50
2019-01-29T10:06:17.223Z,71.60
2019-01-29T10:08:47.087Z,70.00
2019-01-29T10:11:16.698Z,68.40
2019-01-29T10:13:46.283Z,67.10
2019-01-29T10:16:16.146Z,68.00
2019-01-29T10:18:45.960Z,67.20
2019-01-29T10:21:15.829Z,65.80
2019-01-29T10:23:45.431Z,65.30
2019-01-29T10:26:15.017Z,63.80
2019-01-29T10:28:44.609Z,62.90
2019-01-29T10:31:14.472Z,61.30
2019-01-29T10:33:44.296Z,62.20
2019-01-29T10:36:13.867Z,62.70
2019-01-29T10:38:43.762Z,62.80
2019-01-29T10:41:13.354Z,61.30
2019-01-29T10:43:43.218Z,60.40
2019-01-29T10:46:12.831Z,58.80
2019-01-29T10:48:42.441Z,57.20
2019-01-29T10:51:12.047Z,54.80
2019-01-29T10:53:41.874Z,53.60
2019-01-29T10:56:11.591Z,52.20
2019-01-29T10:58:41.455Z,51.80
2019-01-29T11:01:11.148Z,53.50
2019-01-29T11:03:40.738Z,54.20
2019-01-29T11:06:10.329Z,53.50
2019-01-29T11:08:39.883Z,53.60
2019-01-29T11:11:09.519Z,50.10
2019-01-29T11:13:39.081Z,49.20
2019-01-29T11:16:08.979Z,49.50
2019-01-29T11:18:38.575Z,49.90
2019-01-29T11:21:08.528Z,47.70
2019-01-29T11:23:38.399Z,49.00
2019-01-29T11:26:08.398Z,48.30
2019-01-29T11:28:38.309Z,46.70
2019-01-29T11:31:08.121Z,46.40
2019-01-29T11:33:37.650Z,46.80
2019-01-29T11:36:07.368Z,46.40
2019-01-29T11:38:37.293Z,47.00
2019-01-29T11:41:06.946Z,44.80
2019-01-29T11:43:36.799Z,45.40
2019-01-29T11:46:07.186Z,44.80
2019-01-29T11:48:37.121Z,45.70
2019-01-29T11:51:07.375Z,45.00
2019-01-29T11:53:37.239Z,45.60
2019-01-29T11:56:06.880Z,48.80
2019-01-29T11:58:36.507Z,50.00
2019-01-29T12:01:08.403Z,52.10
2019-01-29T12:03:38.014Z,55.80
2019-01-29T12:06:07.722Z,57.70
2019-01-29T12:08:37.841Z,60.60
2019-01-29T12:11:07.551Z,60.70
2019-01-29T12:13:37.119Z,61.20
2019-01-29T12:16:06.674Z,57.90
2019-01-29T12:18:36.545Z,59.70
2019-01-29T12:21:06.307Z,57.50
2019-01-29T12:23:35.911Z,58.40
2019-01-29T12:26:12.952Z,55.50
2019-01-29T12:28:36.981Z,56.20
2019-01-29T12:31:06.551Z,53.90
2019-01-29T12:33:36.381Z,53.80
2019-01-29T12:36:06.005Z,54.00
2019-01-29T12:38:35.863Z,53.40
2019-01-29T12:41:05.646Z,51.60
2019-01-29T12:43:35.237Z,51.40
2019-01-29T12:46:05.554Z,50.30
2019-01-29T12:48:35.154Z,49.80
2019-01-29T12:51:08.299Z,50.00
2019-01-29T12:53:40.127Z,50.00
2019-01-29T12:56:09.881Z,48.30
2019-01-29T12:58:39.758Z,47.20
2019-01-29T13:01:09.323Z,45.50
2019-01-29T13:03:38.896Z,45.60
2019-01-29T13:06:08.530Z,42.90
2019-01-29T13:08:38.570Z,42.50
2019-01-29T13:11:08.296Z,41.20
2019-01-29T13:13:37.874Z,42.00
2019-01-29T13:16:07.462Z,41.10
2019-01-29T13:18:37.671Z,39.70
2019-01-29T13:21:07.242Z,38.60
2019-01-29T13:23:36.837Z,38.20
2019-01-29T13:26:06.433Z,39.60
2019-01-29T13:28:36.067Z,39.30
2019-01-29T13:31:05.625Z,38.40
2019-01-29T13:33:35.231Z,36.60
2019-01-29T13:36:08.266Z,37.50
2019-01-29T13:38:38.276Z,38.90
2019-01-29T13:41:07.872Z,38.30
2019-01-29T13:43:37.968Z,38.20
2019-01-29T13:46:07.516Z,35.60
2019-01-29T13:48:37.103Z,36.90
2019-01-29T13:51:07.335Z,38.10
2019-01-29T13:53:36.900Z,37.90
2019-01-29T13:56:06.768Z,38.10
2019-01-29T13:58:36.572Z,38.40
2019-01-29T14:01:06.832Z,38.60
2019-01-29T14:03:36.613Z,38.60
2019-01-29T14:06:06.660Z,38.50
2019-01-29T14:08:36.235Z,35.90
2019-01-29T14:11:06.371Z,35.10
2019-01-29T14:13:36.203Z,36.70
2019-01-29T14:16:10.023Z,35.60
2019-01-29T14:18:40.113Z,34.40
2019-01-29T14:21:09.672Z,35.10
2019-01-29T14:23:39.243Z,34.40
2019-01-29T14:26:08.836Z,31.90
2019-01-29T14:28:39.244Z,32.10
2019-01-29T14:31:09.137Z,32.30
2019-01-29T14:33:38.984Z,32.90
2019-01-29T14:36:16.463Z,33.70
2019-01-29T14:39:16.448Z,34.40
2019-01-29T14:41:46.046Z,35.60
2019-01-29T14:44:21.464Z,35.90
2019-01-29T14:46:51.044Z,36.90
2019-01-29T14:49:20.917Z,37.80
2019-01-29T14:51:50.500Z,36.80
2019-01-29T14:54:20.072Z,36.90
2019-01-29T14:56:56.691Z,34.90
2019-01-29T14:59:21.145Z,35.40
2019-01-29T15:01:50.783Z,35.30
2019-01-29T15:04:20.577Z,34.10
2019-01-29T15:06:50.211Z,35.10
2019-01-29T15:09:19.745Z,35.30
2019-01-29T15:11:49.357Z,35.10
2019-01-29T15:14:19.167Z,35.50
2019-01-29T15:17:13.627Z,35.10
2019-01-29T15:19:43.430Z,36.50
2019-01-29T15:22:13.495Z,37.10
2019-01-29T15:24:43.071Z,37.30
2019-01-29T15:27:12.875Z,37.70
2019-01-29T15:29:42.731Z,37.60
2019-01-29T15:32:12.320Z,38.00
2019-01-29T15:34:42.168Z,38.30
2019-01-29T15:37:12.016Z,38.00
2019-01-29T15:39:41.837Z,37.00
2019-01-29T15:42:11.675Z,38.40
2019-01-29T15:44:41.246Z,39.30
2019-01-29T15:47:11.118Z,39.70
2019-01-29T15:49:40.968Z,40.20
2019-01-29T15:52:10.798Z,40.40
2019-01-29T15:54:40.346Z,41.30
2019-01-29T15:57:14.246Z,41.50
2019-01-29T15:59:42.992Z,41.80
2019-01-29T16:02:13.037Z,41.90
2019-01-29T16:04:42.578Z,41.20
2019-01-29T16:07:12.236Z,42.50
2019-01-29T16:09:42.035Z,42.50
2019-01-29T16:12:17.321Z,42.90
2019-01-29T16:14:47.098Z,43.50
2019-01-29T16:17:17.094Z,43.50
2019-01-29T16:19:46.631Z,45.10
2019-01-29T16:22:16.448Z,45.40
2019-01-29T16:24:46.156Z,47.30
2019-01-29T16:27:22.548Z,48.30
2019-01-29T16:29:47.520Z,50.20
2019-01-29T16:32:17.139Z,50.20
2019-01-29T16:34:47.005Z,51.80
2019-01-29T16:37:17.609Z,52.80
2019-01-29T16:39:47.493Z,53.30
2019-01-29T16:42:17.092Z,53.40
2019-01-29T16:44:46.745Z,54.80
2019-01-29T16:47:16.608Z,55.90
2019-01-29T16:49:46.196Z,56.70
2019-01-29T16:52:18.018Z,57.20
2019-01-29T16:54:47.584Z,58.70
2019-01-29T16:57:17.171Z,59.30
2019-01-29T16:59:47.275Z,60.10
2019-01-29T17:02:17.253Z,60.70
2019-01-29T17:04:46.862Z,61.50
2019-01-29T17:07:16.442Z,62.50
2019-01-29T17:09:46.304Z,63.10
2019-01-29T17:12:16.146Z,63.60
2019-01-29T17:14:46.228Z,63.60
2019-01-29T17:17:15.837Z,63.70
2019-01-29T17:19:45.998Z,63.90
2019-01-29T17:22:15.558Z,63.70
2019-01-29T17:24:45.411Z,63.40
2019-01-29T17:27:15.274Z,63.50
2019-01-29T17:29:44.869Z,63.10
2019-01-29T17:32:14.755Z,63.20
2019-01-29T17:34:44.672Z,63.40
2019-01-29T17:37:14.232Z,63.70
2019-01-29T17:39:44.619Z,63.40
2019-01-29T17:42:14.460Z,63.00
2019-01-29T17:44:44.363Z,62.70
2019-01-29T17:47:13.941Z,62.60
2019-01-29T17:49:43.562Z,62.50
2019-01-29T17:52:13.196Z,62.60
2019-01-29T17:54:43.020Z,62.00
2019-01-29T17:57:13.184Z,62.00
2019-01-29T17:59:42.783Z,62.60
2019-01-29T18:02:12.345Z,62.20
2019-01-29T18:04:42.000Z,62.30
2019-01-29T18:07:11.642Z,61.80
2019-01-29T18:09:41.214Z,62.50
2019-01-29T18:12:10.772Z,62.50
2019-01-29T18:14:40.356Z,62.40
2019-01-29T18:17:10.175Z,62.20
2019-01-29T18:19:39.769Z,62.00
2019-01-29T18:22:09.320Z,61.60
2019-01-29T18:24:39.214Z,61.50
2019-01-29T18:27:08.824Z,61.90
2019-01-29T18:29:38.456Z,62.20
2019-01-29T18:32:08.088Z,61.90
2019-01-29T18:34:37.901Z,62.30
2019-01-29T18:37:07.787Z,61.50
2019-01-29T18:39:37.557Z,62.30
2019-01-29T18:42:07.478Z,62.40
2019-01-29T18:44:37.856Z,62.40
2019-01-29T18:47:07.517Z,62.10
2019-01-29T18:49:37.377Z,62.30
2019-01-29T18:52:07.000Z,62.20
2019-01-29T18:54:36.595Z,62.10
2019-01-29T18:57:06.185Z,62.20
2019-01-29T18:59:35.778Z,62.20
2019-01-29T19:02:05.804Z,62.90
2019-01-29T19:04:35.646Z,63.10
2019-01-29T19:07:05.238Z,62.50
2019-01-29T19:09:34.817Z,62.90
2019-01-29T19:12:04.736Z,62.80
2019-01-29T19:14:34.349Z,62.60
2019-01-29T19:17:04.567Z,62.80
2019-01-29T19:19:34.697Z,63.40
2019-01-29T19:22:04.607Z,63.60
2019-01-29T19:24:34.140Z,64.20
2019-01-29T19:27:03.751Z,64.80
2019-01-29T19:29:33.428Z,64.30
2019-01-29T19:32:03.023Z,65.80
2019-01-29T19:34:33.056Z,65.30
2019-01-29T19:37:03.159Z,65.00
2019-01-29T19:39:33.036Z,64.50
2019-01-29T19:42:02.636Z,64.60
2019-01-29T19:44:32.197Z,64.50
2019-01-29T19:47:01.764Z,64.10
2019-01-29T19:49:31.335Z,64.70
2019-01-29T19:52:01.024Z,64.30
2019-01-29T19:54:30.693Z,63.90
2019-01-29T19:57:00.241Z,63.70
2019-01-29T19:59:29.812Z,63.10
2019-01-29T20:01:59.723Z,63.00
2019-01-29T20:04:29.785Z,62.50
2019-01-29T20:06:59.604Z,62.00
2019-01-29T20:09:29.199Z,61.90
2019-01-29T20:11:58.902Z,61.40
2019-01-29T20:14:28.480Z,61.50
2019-01-29T20:16:58.079Z,62.60
2019-01-29T20:19:27.644Z,62.70
2019-01-29T20:21:57.311Z,63.20
2019-01-29T20:24:27.233Z,63.40
2019-01-29T20:26:56.875Z,62.50
2019-01-29T20:29:26.863Z,62.00
2019-01-29T20:31:56.499Z,61.70
2019-01-29T20:34:26.060Z,61.90
2019-01-29T20:36:56.024Z,62.00
2019-01-29T20:39:34.787Z,62.10
2019-01-29T20:41:57.391Z,62.30
2019-01-29T20:44:26.952Z,62.10
2019-01-29T20:46:56.553Z,62.10
2019-01-29T20:49:26.391Z,61.80
2019-01-29T20:51:56.003Z,62.00
2019-01-29T20:54:27.573Z,61.80
2019-01-29T20:56:57.446Z,61.80
2019-01-29T20:59:27.016Z,61.40
2019-01-29T21:01:56.919Z,60.40
2019-01-29T21:04:28.521Z,61.30
2019-01-29T21:06:58.004Z,61.50
2019-01-29T21:09:27.623Z,61.40
2019-01-29T21:11:57.176Z,61.40
2019-01-29T21:14:27.047Z,61.20
2019-01-29T21:16:56.895Z,61.50
2019-01-29T21:19:26.497Z,61.40
2019-01-29T21:21:56.049Z,61.30
2019-01-29T21:24:25.598Z,61.20
2019-01-29T21:26:55.492Z,61.30
2019-01-29T21:29:25.346Z,61.40
2019-01-29T21:31:54.993Z,61.80
2019-01-29T21:34:24.820Z,62.20
2019-01-29T21:36:54.785Z,62.30
2019-01-29T21:39:24.339Z,61.60
2019-01-29T21:41:54.488Z,62.20
2019-01-29T21:44:24.374Z,62.50
2019-01-29T21:46:54.439Z,62.50
2019-01-29T21:49:24.047Z,62.90
2019-01-29T21:51:53.663Z,62.60
2019-01-29T21:54:23.291Z,63.30
2019-01-29T21:56:52.883Z,63.00
2019-01-29T21:59:22.682Z,63.10
2019-01-29T22:01:52.823Z,63.10
2019-01-29T22:04:22.374Z,62.50
2019-01-29T22:06:52.508Z,63.20
2019-01-29T22:09:22.848Z,63.00
2019-01-29T22:11:52.768Z,63.60
2019-01-29T22:14:22.340Z,63.70
2019-01-29T22:16:51.947Z,64.40
2019-01-29T22:19:21.492Z,64.90
2019-01-29T22:21:51.331Z,64.50
2019-01-29T22:24:21.173Z,63.80
2019-01-29T22:26:51.085Z,64.00
2019-01-29T22:29:23.294Z,64.20
2019-01-29T22:31:52.139Z,63.50
2019-01-29T22:34:21.770Z,63.60
2019-01-29T22:36:51.410Z,63.80
2019-01-29T22:39:20.987Z,63.70
2019-01-29T22:41:50.860Z,63.70
2019-01-29T22:44:20.429Z,63.50
2019-01-29T22:46:50.280Z,63.50
2019-01-29T22:49:19.895Z,63.80
2019-01-29T22:51:49.948Z,63.70
2019-01-29T22:54:19.559Z,63.80
2019-01-29T22:56:49.268Z,62.90
2019-01-29T22:59:19.126Z,63.80
2019-01-29T23:01:49.059Z,64.20
2019-01-29T23:04:23.731Z,64.10
2019-01-29T23:07:14.601Z,64.20
2019-01-29T23:09:44.225Z,64.50
2019-01-29T23:12:13.773Z,64.90
2019-01-29T23:14:43.691Z,65.20
2019-01-29T23:17:13.315Z,64.90
2019-01-29T23:19:42.912Z,65.20
2019-01-29T23:22:12.671Z,65.00
2019-01-29T23:24:42.466Z,64.90
2019-01-29T23:27:12.191Z,64.80
2019-01-29T23:29:43.698Z,64.70
2019-01-29T23:32:13.243Z,64.60
2019-01-29T23:34:43.078Z,64.80
2019-01-29T23:37:12.931Z,65.40
2019-01-29T23:39:42.747Z,65.40
2019-01-29T23:42:12.358Z,65.50
2019-01-29T23:44:41.945Z,65.60
2019-01-29T23:47:11.476Z,65.70
2019-01-29T23:49:41.346Z,67.00
2019-01-29T23:52:11.270Z,68.30
2019-01-29T23:54:41.098Z,68.10
2019-01-29T23:57:11.306Z,69.20
2019-01-29T23:59:41.144Z,69.20
